Main page
METAR-TAF:

METAR-TAF

Airports :

Badajoz, Spain

Badajoz Airport

latitude: 38-53N, longitude: 006-49W, elevation: 185 m

Current weather observation

The report was made 8 hours and 51 minutes ago, at 19:00 UTC
Wind 3 kt from the South/Southwest
Temperature 25°C
Humidity 36%
Pressure 1019 hPa
Visibility 10 km or more
no clouds below 1500 m and no cumulonimbus

METAR: LEBZ 191900Z 20003KT CAVOK 25/09 Q1019

Time: 05:51 (03:51 UTC)

Forecast

The report was made 4 hours and 51 minutes ago, at 23:00 UTC
Forecast valid from 20 at 00 UTC to 20 at 24 UTC
Wind 5 kt from the West
Visibility 10 km or more
no clouds below 1500 m and no cumulonimbus

TAF: LEBZ 192300Z 2000/2024 27005KT CAVOK TX32/2015Z TN14/2006Z

Weather observations and forecasts of more than 4000 airports (METAR and TAF reports).

The available stations are represented by yellow and red dots on the map.

Hover mouse over dot to see the name of the station.

Then click to see weather observations and forecasts.

To change the map : click on the green buttons with a black cross to zoom in, on the green button with a dash to zoom out, or on the green arrows for adjacent maps.


METAR-TAF: